createdAt,value
2023-04-16T00:00:43.323Z,23.52
2023-04-16T00:03:10.118Z,24.35
2023-04-16T00:05:36.825Z,24.38
2023-04-16T00:08:03.364Z,21.00
2023-04-16T00:10:30.225Z,21.95
2023-04-16T00:12:56.757Z,24.10
2023-04-16T00:15:23.397Z,23.95
2023-04-16T00:17:49.942Z,21.98
2023-04-16T00:20:16.727Z,22.40
2023-04-16T00:22:43.278Z,24.60
2023-04-16T00:25:09.836Z,23.67
2023-04-16T00:27:36.412Z,24.23
2023-04-16T00:30:03.568Z,22.77
2023-04-16T00:32:30.428Z,22.52
2023-04-16T00:34:57.033Z,23.00
2023-04-16T00:37:23.591Z,23.00
2023-04-16T00:39:51.006Z,25.25
2023-04-16T00:42:17.633Z,25.40
2023-04-16T00:44:44.158Z,22.10
2023-04-16T00:47:11.405Z,23.92
2023-04-16T00:49:38.318Z,22.45
2023-04-16T00:52:04.928Z,22.48
2023-04-16T00:54:31.911Z,24.08
2023-04-16T00:56:59.848Z,26.75
2023-04-16T00:59:27.368Z,25.00
2023-04-16T01:01:54.054Z,23.05
2023-04-16T01:04:21.484Z,27.15
2023-04-16T01:06:48.176Z,27.25
2023-04-16T01:09:14.769Z,26.52
2023-04-16T01:11:41.352Z,29.05
2023-04-16T01:14:07.968Z,24.05
2023-04-16T01:16:34.580Z,27.25
2023-04-16T01:19:01.184Z,25.33
2023-04-16T01:21:28.009Z,23.50
2023-04-16T01:23:54.575Z,23.63
2023-04-16T01:26:21.525Z,23.05
2023-04-16T01:28:48.098Z,24.02
2023-04-16T01:31:14.666Z,21.35
2023-04-16T01:33:41.264Z,20.48
2023-04-16T01:36:07.849Z,22.33
2023-04-16T01:38:34.448Z,22.42
2023-04-16T01:41:01.902Z,25.50
2023-04-16T01:43:28.456Z,27.60
2023-04-16T01:46:12.002Z,22.10
2023-04-16T01:48:38.524Z,22.95
2023-04-16T01:51:05.481Z,23.88
2023-04-16T01:53:32.003Z,26.05
2023-04-16T01:55:58.513Z,29.45
2023-04-16T01:58:25.022Z,24.58
2023-04-16T02:00:51.629Z,25.65
2023-04-16T02:03:18.761Z,21.67
2023-04-16T02:05:45.350Z,22.58
2023-04-16T02:08:11.873Z,21.50
2023-04-16T02:10:38.424Z,23.02
2023-04-16T02:13:05.070Z,24.33
2023-04-16T02:15:31.624Z,24.67
2023-04-16T02:17:58.221Z,29.23
2023-04-16T02:20:24.846Z,27.00
2023-04-16T02:22:51.354Z,27.92
2023-04-16T02:25:17.996Z,23.85
2023-04-16T02:27:44.520Z,26.92
2023-04-16T02:30:11.566Z,23.65
2023-04-16T02:32:38.159Z,23.08
2023-04-16T02:35:05.077Z,24.20
2023-04-16T02:37:31.648Z,26.75
2023-04-16T02:39:58.160Z,23.83
2023-04-16T02:42:24.778Z,26.70
2023-04-16T02:44:51.286Z,23.65
2023-04-16T02:47:17.810Z,19.77
2023-04-16T02:49:44.352Z,25.65
2023-04-16T02:52:10.877Z,24.50
2023-04-16T02:54:37.387Z,25.27
2023-04-16T02:57:03.893Z,29.65
2023-04-16T02:59:30.529Z,23.38
2023-04-16T03:01:57.142Z,26.13
2023-04-16T03:04:23.749Z,26.38
2023-04-16T03:06:50.477Z,22.55
2023-04-16T03:09:17.245Z,20.77
2023-04-16T03:11:43.768Z,25.23
2023-04-16T03:14:10.487Z,23.88
2023-04-16T03:16:37.026Z,23.30
2023-04-16T03:19:03.637Z,24.30
2023-04-16T03:21:30.175Z,25.13
2023-04-16T03:23:57.215Z,20.05
2023-04-16T03:26:23.752Z,20.77
2023-04-16T03:28:50.271Z,19.10
2023-04-16T03:31:16.953Z,20.58
2023-04-16T03:33:43.516Z,23.73
2023-04-16T03:36:10.136Z,19.58
2023-04-16T03:38:36.706Z,20.25
2023-04-16T03:41:03.295Z,19.20
2023-04-16T03:43:29.826Z,18.05
2023-04-16T03:45:56.609Z,18.42
2023-04-16T03:48:23.267Z,19.80
2023-04-16T03:50:49.772Z,17.60
2023-04-16T03:53:16.332Z,18.60
2023-04-16T03:55:43.128Z,18.83
2023-04-16T03:58:09.909Z,20.92
2023-04-16T04:00:36.482Z,22.48
2023-04-16T04:03:03.382Z,23.38
2023-04-16T04:05:30.078Z,25.33
2023-04-16T04:07:56.648Z,22.60
2023-04-16T04:10:23.201Z,19.40
2023-04-16T04:12:49.797Z,23.15
2023-04-16T04:15:16.459Z,19.02
2023-04-16T04:17:43.104Z,21.48
2023-04-16T04:20:10.414Z,19.30
2023-04-16T04:22:36.968Z,21.45
2023-04-16T04:25:03.570Z,22.40
2023-04-16T04:27:30.085Z,22.73
2023-04-16T04:29:56.840Z,20.52
2023-04-16T04:32:23.613Z,21.58
2023-04-16T04:34:50.680Z,20.90
2023-04-16T04:37:17.217Z,21.27
2023-04-16T04:39:43.760Z,22.52
2023-04-16T04:42:10.478Z,22.17
2023-04-16T04:44:37.035Z,24.25
2023-04-16T04:47:03.597Z,21.85
2023-04-16T04:49:30.957Z,21.35
2023-04-16T04:51:57.538Z,22.48
2023-04-16T04:54:24.128Z,21.25
2023-04-16T04:56:52.526Z,21.88
2023-04-16T04:59:23.200Z,21.48
2023-04-16T05:01:50.389Z,24.45
2023-04-16T05:04:17.384Z,22.05
2023-04-16T05:06:44.386Z,28.35
2023-04-16T05:09:11.728Z,33.63
2023-04-16T05:11:39.302Z,25.85
2023-04-16T05:14:05.872Z,27.67
2023-04-16T05:16:32.439Z,24.58
2023-04-16T05:18:59.051Z,24.58
2023-04-16T05:21:26.439Z,24.95
2023-04-16T05:23:53.120Z,25.70
2023-04-16T05:26:19.788Z,23.60
2023-04-16T05:28:46.457Z,23.27
2023-04-16T05:31:13.097Z,22.70
2023-04-16T05:33:39.692Z,24.25
2023-04-16T05:36:06.519Z,19.63
2023-04-16T05:38:33.075Z,18.20
2023-04-16T05:40:59.643Z,18.80
2023-04-16T05:43:26.375Z,15.85
2023-04-16T05:45:52.876Z,20.20
2023-04-16T05:48:20.247Z,18.42
2023-04-16T05:50:46.806Z,18.33
2023-04-16T05:53:14.254Z,21.83
2023-04-16T05:55:40.897Z,22.10
2023-04-16T05:58:07.441Z,20.95
2023-04-16T06:00:33.985Z,21.85
2023-04-16T06:03:01.005Z,21.40
2023-04-16T06:05:28.262Z,20.83
2023-04-16T06:07:55.966Z,19.63
2023-04-16T06:10:22.718Z,18.83
2023-04-16T06:12:49.371Z,19.23
2023-04-16T06:15:16.020Z,18.63
2023-04-16T06:17:42.576Z,17.48
2023-04-16T06:20:09.708Z,17.35
2023-04-16T06:22:36.355Z,19.23
2023-04-16T06:25:02.940Z,19.92
2023-04-16T06:27:29.505Z,17.48
2023-04-16T06:29:57.374Z,17.33
2023-04-16T06:32:24.304Z,17.25
2023-04-16T06:34:51.246Z,17.65
2023-04-16T06:37:17.798Z,17.40
2023-04-16T06:39:44.354Z,15.93
2023-04-16T06:42:10.950Z,16.77
2023-04-16T06:44:37.484Z,13.60
2023-04-16T06:47:04.130Z,14.73
2023-04-16T06:49:30.916Z,19.23
2023-04-16T06:51:57.749Z,14.75
2023-04-16T06:54:24.275Z,14.00
2023-04-16T06:56:50.782Z,15.70
2023-04-16T06:59:17.330Z,14.80
2023-04-16T07:01:43.949Z,16.65
2023-04-16T07:04:11.123Z,16.55
2023-04-16T07:06:37.677Z,13.45
2023-04-16T07:09:04.293Z,12.82
2023-04-16T07:11:31.266Z,15.13
2023-04-16T07:13:59.005Z,14.63
2023-04-16T07:16:25.679Z,12.75
2023-04-16T07:18:52.318Z,14.98
2023-04-16T07:21:18.965Z,14.68
2023-04-16T07:23:45.541Z,16.55
2023-04-16T07:26:12.111Z,14.80
2023-04-16T07:28:38.624Z,14.60
2023-04-16T07:31:05.336Z,14.98
2023-04-16T07:33:31.843Z,14.45
2023-04-16T07:35:58.376Z,15.50
2023-04-16T07:38:24.925Z,16.73
2023-04-16T07:40:51.498Z,15.93
2023-04-16T07:43:18.060Z,16.15
2023-04-16T07:45:44.688Z,15.73
2023-04-16T07:48:11.296Z,14.90
2023-04-16T07:50:37.876Z,15.13
2023-04-16T07:53:05.903Z,14.93
2023-04-16T07:55:32.449Z,15.07
2023-04-16T07:57:59.128Z,12.88
2023-04-16T08:00:26.402Z,15.57
2023-04-16T08:02:53.199Z,17.02
2023-04-16T08:05:19.876Z,18.73
2023-04-16T08:07:46.988Z,19.85
2023-04-16T08:10:13.518Z,21.77
2023-04-16T08:12:40.724Z,16.42
2023-04-16T08:15:08.064Z,18.30
2023-04-16T08:17:34.954Z,15.52
2023-04-16T08:20:01.883Z,15.02
2023-04-16T08:22:28.442Z,16.23
2023-04-16T08:24:57.052Z,15.30
2023-04-16T08:27:23.590Z,16.13
2023-04-16T08:29:50.131Z,14.15
2023-04-16T08:32:16.677Z,15.75
2023-04-16T08:34:43.344Z,16.95
2023-04-16T08:37:10.155Z,15.27
2023-04-16T08:39:39.406Z,15.10
2023-04-16T08:44:37.494Z,14.50
2023-04-16T08:47:08.490Z,16.30
2023-04-16T08:49:36.763Z,16.77
2023-04-16T08:52:06.613Z,16.58
2023-04-16T08:54:40.293Z,16.40
2023-04-16T08:57:10.190Z,17.13
2023-04-16T08:59:38.202Z,15.88
2023-04-16T09:02:06.467Z,22.75
2023-04-16T09:04:34.127Z,15.82
2023-04-16T09:07:05.338Z,14.05
2023-04-16T09:09:34.601Z,13.52
2023-04-16T09:12:01.340Z,16.45
2023-04-16T09:14:27.847Z,17.27
2023-04-16T09:16:55.691Z,18.60
2023-04-16T09:19:23.406Z,16.17
2023-04-16T09:21:50.046Z,17.40
2023-04-16T09:24:16.844Z,14.13
2023-04-16T09:26:44.130Z,19.02
2023-04-16T09:29:10.889Z,17.70
2023-04-16T09:31:37.588Z,15.23
2023-04-16T09:34:05.533Z,15.63
2023-04-16T09:36:32.824Z,12.65
2023-04-16T09:39:00.411Z,13.80
2023-04-16T09:41:39.453Z,10.45
2023-04-16T09:44:06.033Z,11.55
2023-04-16T09:46:37.562Z,8.90
2023-04-16T09:49:10.965Z,11.63
2023-04-16T09:51:40.751Z,9.82
2023-04-16T09:54:08.132Z,10.02
2023-04-16T09:56:41.417Z,8.20
2023-04-16T09:59:09.743Z,9.85
2023-04-16T10:01:36.807Z,6.50
2023-04-16T10:04:06.935Z,8.95
2023-04-16T10:06:33.551Z,10.75
2023-04-16T10:09:00.187Z,12.00
2023-04-16T10:11:27.228Z,9.38
2023-04-16T10:13:53.755Z,7.32
2023-04-16T10:16:22.195Z,7.93
2023-04-16T10:18:48.786Z,8.63
2023-04-16T10:21:16.370Z,7.85
2023-04-16T10:23:44.168Z,8.27
2023-04-16T10:26:11.169Z,6.43
2023-04-16T10:28:37.802Z,6.45
2023-04-16T10:31:07.526Z,6.18
2023-04-16T10:33:38.277Z,5.38
2023-04-16T10:36:15.493Z,6.70
2023-04-16T10:38:46.667Z,6.13
2023-04-16T10:41:13.314Z,8.13
2023-04-16T10:43:43.431Z,5.13
2023-04-16T10:46:22.449Z,6.78
2023-04-16T10:48:51.073Z,5.97
2023-04-16T10:51:37.961Z,6.10
2023-04-16T10:54:26.669Z,6.45
2023-04-16T10:56:56.318Z,7.57
2023-04-16T10:59:24.073Z,6.10
2023-04-16T11:01:53.004Z,6.78
2023-04-16T11:04:19.638Z,9.27
2023-04-16T11:07:10.723Z,6.53
2023-04-16T11:10:06.771Z,11.85
2023-04-16T11:12:34.403Z,9.27
2023-04-16T11:15:12.391Z,6.47
2023-04-16T11:17:43.751Z,6.13
2023-04-16T11:20:18.008Z,6.43
2023-04-16T11:22:48.217Z,10.15
2023-04-16T11:25:23.238Z,6.25
2023-04-16T11:27:51.111Z,7.45
2023-04-16T11:30:18.821Z,4.93
2023-04-16T11:32:46.038Z,4.35
2023-04-16T11:35:18.046Z,3.90
2023-04-16T11:37:45.839Z,4.60
2023-04-16T11:40:13.035Z,3.38
2023-04-16T11:42:41.118Z,3.70
2023-04-16T11:45:09.373Z,4.03
2023-04-16T11:48:02.296Z,4.70
2023-04-16T11:50:29.190Z,4.30
2023-04-16T11:52:57.826Z,3.33
2023-04-16T11:55:24.670Z,3.95
2023-04-16T11:57:51.731Z,6.65
2023-04-16T12:00:19.327Z,5.28
2023-04-16T12:02:53.686Z,5.63
2023-04-16T12:05:37.775Z,7.65
2023-04-16T12:08:07.040Z,5.88
2023-04-16T12:10:52.594Z,4.18
2023-04-16T12:13:19.715Z,9.27
2023-04-16T12:15:50.827Z,4.93
2023-04-16T12:18:18.822Z,6.80
2023-04-16T12:20:46.664Z,4.72
2023-04-16T12:23:24.223Z,5.18
2023-04-16T12:25:52.155Z,5.18
2023-04-16T12:28:33.705Z,3.58
2023-04-16T12:31:01.542Z,7.22
2023-04-16T12:33:28.464Z,9.00
2023-04-16T12:35:55.208Z,5.07
2023-04-16T12:38:23.686Z,4.32
2023-04-16T12:40:51.123Z,4.70
2023-04-16T12:43:17.941Z,4.40
2023-04-16T12:45:44.639Z,4.63
2023-04-16T12:48:11.554Z,5.10
2023-04-16T12:50:39.671Z,7.35
2023-04-16T12:53:06.396Z,6.60
2023-04-16T12:55:32.973Z,6.90
2023-04-16T12:57:59.519Z,11.43
2023-04-16T13:00:26.297Z,8.38
2023-04-16T13:02:53.007Z,12.18
2023-04-16T13:05:19.747Z,6.72
2023-04-16T13:07:46.413Z,5.53
2023-04-16T13:10:13.494Z,6.18
2023-04-16T13:12:40.325Z,5.75
2023-04-16T13:15:07.509Z,6.60
2023-04-16T13:17:34.033Z,6.82
2023-04-16T13:20:00.675Z,6.13
2023-04-16T13:22:27.232Z,8.27
2023-04-16T13:24:53.855Z,7.10
2023-04-16T13:27:20.413Z,13.82
2023-04-16T13:29:47.159Z,10.15
2023-04-16T13:32:14.741Z,12.00
2023-04-16T13:34:41.352Z,19.02
2023-04-16T13:37:07.956Z,9.18
2023-04-16T13:39:34.671Z,9.85
2023-04-16T13:42:01.826Z,12.50
2023-04-16T13:44:28.376Z,7.47
2023-04-16T13:46:54.968Z,14.27
2023-04-16T13:49:22.651Z,19.40
2023-04-16T13:51:49.492Z,10.98
2023-04-16T13:54:16.074Z,8.50
2023-04-16T13:56:42.691Z,8.85
2023-04-16T13:59:09.461Z,8.52
2023-04-16T14:01:36.262Z,7.35
2023-04-16T14:04:06.435Z,7.22
2023-04-16T14:06:34.463Z,8.75
2023-04-16T14:09:01.287Z,5.32
2023-04-16T14:11:28.089Z,6.03
2023-04-16T14:13:55.122Z,5.18
2023-04-16T14:16:21.747Z,7.97
2023-04-16T14:18:48.332Z,5.70
2023-04-16T14:21:17.194Z,6.43
2023-04-16T14:23:43.724Z,6.78
2023-04-16T14:26:10.296Z,6.78
2023-04-16T14:28:37.177Z,4.75
2023-04-16T14:31:03.766Z,6.28
2023-04-16T14:33:31.043Z,6.20
2023-04-16T14:35:58.179Z,7.82
2023-04-16T14:38:25.666Z,12.05
2023-04-16T14:40:52.233Z,30.00
2023-04-16T14:43:18.787Z,9.57
2023-04-16T14:45:46.075Z,5.45
2023-04-16T14:48:12.736Z,5.55
2023-04-16T14:50:43.526Z,4.95
2023-04-16T14:53:11.962Z,5.47
2023-04-16T14:55:38.660Z,5.78
2023-04-16T14:58:05.550Z,4.43
2023-04-16T15:00:34.454Z,6.32
2023-04-16T15:03:01.293Z,5.10
2023-04-16T15:05:27.936Z,5.38
2023-04-16T15:07:55.185Z,5.45
2023-04-16T15:10:21.753Z,5.00
2023-04-16T15:12:48.241Z,6.63
2023-04-16T15:15:14.868Z,7.85
2023-04-16T15:17:43.190Z,4.03
2023-04-16T15:20:10.509Z,5.63
2023-04-16T15:22:37.116Z,3.83
2023-04-16T15:25:04.702Z,5.32
2023-04-16T15:27:31.772Z,5.03
2023-04-16T15:29:58.344Z,4.95
2023-04-16T15:32:25.130Z,4.22
2023-04-16T15:34:51.805Z,5.35
2023-04-16T15:37:18.343Z,4.05
2023-04-16T15:39:44.916Z,4.72
2023-04-16T15:42:11.852Z,3.75
2023-04-16T15:44:38.580Z,3.10
2023-04-16T15:47:06.468Z,4.45
2023-04-16T15:49:33.028Z,4.45
2023-04-16T15:51:59.624Z,4.05
2023-04-16T15:54:26.240Z,4.18
2023-04-16T15:56:52.813Z,3.08
2023-04-16T15:59:19.397Z,5.90
2023-04-16T16:01:45.977Z,3.25
2023-04-16T16:04:12.634Z,4.25
2023-04-16T16:06:39.344Z,3.58
2023-04-16T16:09:06.257Z,3.78
2023-04-16T16:11:32.899Z,6.20
2023-04-16T16:14:02.768Z,3.45
2023-04-16T16:16:29.342Z,4.72
2023-04-16T16:18:56.005Z,3.50
2023-04-16T16:21:22.725Z,5.28
2023-04-16T16:23:49.446Z,4.03
2023-04-16T16:26:20.620Z,4.47
2023-04-16T16:28:48.004Z,5.00
2023-04-16T16:31:14.596Z,7.60
2023-04-16T16:33:41.184Z,3.97
2023-04-16T16:36:11.616Z,4.40
2023-04-16T16:38:40.039Z,5.18
2023-04-16T16:41:07.235Z,6.55
2023-04-16T16:43:36.516Z,8.10
2023-04-16T16:48:29.472Z,7.50
2023-04-16T16:50:56.140Z,6.40
2023-04-16T16:53:22.681Z,6.25
2023-04-16T16:55:49.209Z,8.10
2023-04-16T16:58:15.887Z,4.97
2023-04-16T17:00:42.451Z,7.10
2023-04-16T17:03:09.378Z,4.32
2023-04-16T17:05:36.641Z,7.68
2023-04-16T17:08:03.264Z,4.40
2023-04-16T17:10:29.887Z,13.65
2023-04-16T17:12:56.455Z,4.55
2023-04-16T17:15:23.135Z,10.05
2023-04-16T17:17:49.798Z,3.67
2023-04-16T17:20:16.481Z,3.88
2023-04-16T17:22:43.011Z,5.07
2023-04-16T17:25:10.184Z,4.82
2023-04-16T17:27:36.813Z,5.63
2023-04-16T17:30:05.421Z,4.35
2023-04-16T17:32:32.704Z,4.60
2023-04-16T17:35:00.734Z,4.68
2023-04-16T17:37:27.646Z,3.58
2023-04-16T17:39:54.198Z,5.65
2023-04-16T17:42:20.720Z,6.82
2023-04-16T17:44:47.627Z,6.63
2023-04-16T17:47:14.239Z,7.38
2023-04-16T17:49:40.799Z,8.88
2023-04-16T17:52:07.381Z,8.15
2023-04-16T17:54:33.891Z,11.27
2023-04-16T17:57:00.602Z,11.50
2023-04-16T17:59:27.444Z,11.98
2023-04-16T18:01:54.718Z,14.70
2023-04-16T18:04:21.581Z,16.55
2023-04-16T18:06:48.503Z,13.80
2023-04-16T18:09:15.501Z,17.88
2023-04-16T18:11:42.141Z,16.08
2023-04-16T18:14:10.014Z,14.45
2023-04-16T18:16:36.818Z,17.58
2023-04-16T18:19:03.376Z,15.57
2023-04-16T18:21:30.458Z,21.60
2023-04-16T18:23:57.624Z,17.83
2023-04-16T18:26:25.319Z,24.38
2023-04-16T18:28:52.162Z,20.45
2023-04-16T18:31:21.203Z,20.08
2023-04-16T18:36:26.107Z,28.65
2023-04-16T18:39:01.799Z,24.88
2023-04-16T18:41:30.516Z,20.65
2023-04-16T18:43:57.362Z,10.73
2023-04-16T18:46:23.967Z,17.67
2023-04-16T18:48:50.620Z,14.48
2023-04-16T18:51:17.167Z,12.57
2023-04-16T18:53:45.518Z,10.25
2023-04-16T18:56:12.369Z,11.25
2023-04-16T18:58:38.987Z,9.48
2023-04-16T19:01:10.998Z,8.70
2023-04-16T19:03:38.050Z,8.95
2023-04-16T19:06:04.866Z,8.27
2023-04-16T19:08:31.442Z,7.00
2023-04-16T19:10:58.034Z,8.27
2023-04-16T19:13:24.812Z,27.55
2023-04-16T19:15:51.405Z,15.80
2023-04-16T19:18:18.070Z,9.85
2023-04-16T19:20:44.620Z,7.50
2023-04-16T19:23:11.568Z,7.97
2023-04-16T19:25:39.512Z,8.68
2023-04-16T19:28:06.061Z,7.10
2023-04-16T19:30:32.793Z,8.32
2023-04-16T19:32:59.364Z,8.05
2023-04-16T19:35:26.016Z,9.52
2023-04-16T19:37:52.732Z,10.30
2023-04-16T19:40:19.342Z,10.30
2023-04-16T19:42:45.829Z,11.75
2023-04-16T19:45:12.486Z,9.02
2023-04-16T19:47:39.112Z,7.70
2023-04-16T19:50:06.490Z,9.02
2023-04-16T19:52:38.693Z,8.32
2023-04-16T19:55:06.549Z,11.20
2023-04-16T19:57:33.280Z,9.13
2023-04-16T20:00:00.316Z,7.93
2023-04-16T20:02:27.172Z,7.45
2023-04-16T20:04:53.842Z,7.55
2023-04-16T20:07:20.585Z,7.63
2023-04-16T20:09:47.244Z,7.13
2023-04-16T20:12:14.407Z,7.15
2023-04-16T20:14:41.878Z,9.27
2023-04-16T20:17:10.097Z,6.85
2023-04-16T20:19:40.515Z,8.65
2023-04-16T20:22:07.068Z,10.93
2023-04-16T20:24:34.273Z,10.88
2023-04-16T20:27:01.771Z,22.30
2023-04-16T20:29:28.370Z,10.30
2023-04-16T20:31:54.933Z,8.82
2023-04-16T20:34:21.511Z,8.32
2023-04-16T20:36:48.156Z,9.13
2023-04-16T20:39:20.427Z,8.45
2023-04-16T20:41:57.025Z,9.23
2023-04-16T20:44:26.198Z,8.52
2023-04-16T20:46:54.885Z,15.60
2023-04-16T20:49:21.603Z,8.45
2023-04-16T20:51:48.218Z,8.95
2023-04-16T20:54:14.757Z,7.32
2023-04-16T20:56:41.579Z,9.52
2023-04-16T20:59:08.108Z,10.02
2023-04-16T21:01:35.568Z,8.70
2023-04-16T21:04:02.524Z,10.75
2023-04-16T21:06:32.741Z,10.75
2023-04-16T21:08:59.323Z,7.97
2023-04-16T21:11:26.240Z,9.18
2023-04-16T21:13:52.754Z,10.10
2023-04-16T21:16:19.410Z,9.68
2023-04-16T21:18:46.157Z,9.75
2023-04-16T21:21:12.676Z,10.15
2023-04-16T21:23:39.175Z,10.57
2023-04-16T21:26:05.733Z,16.23
2023-04-16T21:28:32.427Z,33.88
2023-04-16T21:30:59.076Z,10.32
2023-04-16T21:33:25.645Z,9.63
2023-04-16T21:35:52.968Z,12.25
2023-04-16T21:38:20.255Z,10.05
2023-04-16T21:40:50.598Z,11.02
2023-04-16T21:43:17.859Z,10.05
2023-04-16T21:45:44.404Z,10.85
2023-04-16T21:48:10.991Z,11.65
2023-04-16T21:50:37.687Z,11.88
2023-04-16T21:53:06.274Z,10.98
2023-04-16T21:55:34.655Z,9.98
2023-04-16T21:58:01.730Z,11.35
2023-04-16T22:00:28.470Z,11.05
2023-04-16T22:02:56.102Z,15.18
2023-04-16T22:05:25.760Z,11.05
2023-04-16T22:07:53.064Z,10.40
2023-04-16T22:10:19.681Z,10.80
2023-04-16T22:12:46.584Z,10.15
2023-04-16T22:15:13.992Z,11.98
2023-04-16T22:17:40.791Z,12.00
2023-04-16T22:20:13.086Z,13.60
2023-04-16T22:22:40.950Z,13.55
2023-04-16T22:25:08.106Z,10.35
2023-04-16T22:27:35.006Z,11.32
2023-04-16T22:30:01.877Z,11.05
2023-04-16T22:32:30.257Z,9.90
2023-04-16T22:34:56.939Z,7.15
2023-04-16T22:37:23.518Z,14.20
2023-04-16T22:39:50.236Z,12.45
2023-04-16T22:42:16.788Z,10.98
2023-04-16T22:44:43.324Z,13.30
2023-04-16T22:47:09.857Z,12.43
2023-04-16T22:49:36.414Z,12.85
2023-04-16T22:52:03.314Z,14.68
2023-04-16T22:54:32.957Z,13.57
2023-04-16T22:57:00.993Z,14.57
2023-04-16T22:59:27.529Z,15.65
2023-04-16T23:01:54.130Z,13.15
2023-04-16T23:04:20.952Z,12.43
2023-04-16T23:06:47.536Z,12.77
2023-04-16T23:09:14.388Z,13.40
2023-04-16T23:11:41.022Z,13.40
2023-04-16T23:14:08.340Z,11.88
2023-04-16T23:16:34.990Z,8.10
2023-04-16T23:19:01.611Z,10.63
2023-04-16T23:21:28.170Z,12.57
2023-04-16T23:23:54.967Z,13.15
2023-04-16T23:26:21.702Z,11.13
2023-04-16T23:28:48.283Z,12.70
2023-04-16T23:31:15.973Z,12.05
2023-04-16T23:33:42.494Z,12.65
2023-04-16T23:36:09.433Z,13.77
2023-04-16T23:38:35.957Z,13.43
2023-04-16T23:41:02.457Z,12.07
2023-04-16T23:43:28.960Z,14.60
2023-04-16T23:45:55.859Z,11.57
2023-04-16T23:48:22.487Z,13.65
2023-04-16T23:50:49.004Z,13.40
2023-04-16T23:53:15.650Z,12.52
2023-04-16T23:55:42.175Z,12.95
2023-04-16T23:58:08.696Z,13.15
